sensor_id;sensor_type;location;lat;lon;timestamp;P1;durP1;ratioP1;P2;durP2;ratioP2
75885;SDS011;64561;44.018;10.144;2023-05-10T00:00:33;9.10;;;5.82;;
75885;SDS011;64561;44.018;10.144;2023-05-10T00:03:00;12.55;;;5.68;;
75885;SDS011;64561;44.018;10.144;2023-05-10T00:05:27;9.30;;;5.95;;
75885;SDS011;64561;44.018;10.144;2023-05-10T00:07:53;7.53;;;5.50;;
75885;SDS011;64561;44.018;10.144;2023-05-10T00:10:20;6.93;;;5.53;;
75885;SDS011;64561;44.018;10.144;2023-05-10T00:12:47;8.98;;;5.70;;
75885;SDS011;64561;44.018;10.144;2023-05-10T00:15:14;8.77;;;6.32;;
75885;SDS011;64561;44.018;10.144;2023-05-10T00:17:41;10.43;;;5.55;;
75885;SDS011;64561;44.018;10.144;2023-05-10T00:20:08;9.95;;;6.13;;
75885;SDS011;64561;44.018;10.144;2023-05-10T00:22:35;9.02;;;5.68;;
75885;SDS011;64561;44.018;10.144;2023-05-10T00:25:02;8.77;;;5.57;;
75885;SDS011;64561;44.018;10.144;2023-05-10T00:27:29;9.48;;;6.82;;
75885;SDS011;64561;44.018;10.144;2023-05-10T00:29:55;7.85;;;5.82;;
75885;SDS011;64561;44.018;10.144;2023-05-10T00:32:22;8.50;;;5.75;;
75885;SDS011;64561;44.018;10.144;2023-05-10T00:34:49;10.10;;;5.97;;
75885;SDS011;64561;44.018;10.144;2023-05-10T00:37:16;7.47;;;5.53;;
75885;SDS011;64561;44.018;10.144;2023-05-10T00:39:43;8.07;;;5.82;;
75885;SDS011;64561;44.018;10.144;2023-05-10T00:42:10;18.77;;;6.25;;
75885;SDS011;64561;44.018;10.144;2023-05-10T00:44:37;8.27;;;5.78;;
75885;SDS011;64561;44.018;10.144;2023-05-10T00:47:04;7.43;;;5.22;;
75885;SDS011;64561;44.018;10.144;2023-05-10T00:49:31;6.05;;;5.00;;
75885;SDS011;64561;44.018;10.144;2023-05-10T00:51:58;7.85;;;4.93;;
75885;SDS011;64561;44.018;10.144;2023-05-10T00:54:26;5.95;;;5.13;;
75885;SDS011;64561;44.018;10.144;2023-05-10T00:56:52;7.07;;;4.90;;
75885;SDS011;64561;44.018;10.144;2023-05-10T00:59:19;7.38;;;5.50;;
75885;SDS011;64561;44.018;10.144;2023-05-10T01:01:47;4.90;;;4.00;;
75885;SDS011;64561;44.018;10.144;2023-05-10T01:04:14;5.82;;;3.88;;
75885;SDS011;64561;44.018;10.144;2023-05-10T01:06:42;4.63;;;3.80;;
75885;SDS011;64561;44.018;10.144;2023-05-10T01:09:09;4.43;;;3.30;;
75885;SDS011;64561;44.018;10.144;2023-05-10T01:11:38;4.47;;;3.45;;
75885;SDS011;64561;44.018;10.144;2023-05-10T01:14:06;5.38;;;3.65;;
75885;SDS011;64561;44.018;10.144;2023-05-10T01:16:34;4.10;;;3.17;;
75885;SDS011;64561;44.018;10.144;2023-05-10T01:19:11;4.45;;;3.05;;
75885;SDS011;64561;44.018;10.144;2023-05-10T01:21:45;3.83;;;3.42;;
75885;SDS011;64561;44.018;10.144;2023-05-10T01:24:26;5.18;;;3.08;;
75885;SDS011;64561;44.018;10.144;2023-05-10T01:41:14;4.22;;;3.00;;
75885;SDS011;64561;44.018;10.144;2023-05-10T01:43:55;4.05;;;2.58;;
75885;SDS011;64561;44.018;10.144;2023-05-10T01:46:28;4.90;;;2.60;;
75885;SDS011;64561;44.018;10.144;2023-05-10T01:49:01;2.88;;;2.30;;
75885;SDS011;64561;44.018;10.144;2023-05-10T01:51:36;3.50;;;2.35;;
75885;SDS011;64561;44.018;10.144;2023-05-10T01:54:15;3.53;;;2.20;;
75885;SDS011;64561;44.018;10.144;2023-05-10T01:59:15;3.42;;;2.35;;
75885;SDS011;64561;44.018;10.144;2023-05-10T02:01:45;3.15;;;2.30;;
75885;SDS011;64561;44.018;10.144;2023-05-10T02:04:14;4.65;;;2.40;;
75885;SDS011;64561;44.018;10.144;2023-05-10T02:06:44;2.65;;;2.13;;
75885;SDS011;64561;44.018;10.144;2023-05-10T02:09:12;3.25;;;2.60;;
75885;SDS011;64561;44.018;10.144;2023-05-10T02:11:41;3.70;;;2.30;;
75885;SDS011;64561;44.018;10.144;2023-05-10T02:14:11;3.72;;;2.47;;
75885;SDS011;64561;44.018;10.144;2023-05-10T02:16:38;4.90;;;2.50;;
75885;SDS011;64561;44.018;10.144;2023-05-10T02:19:07;5.03;;;3.10;;
75885;SDS011;64561;44.018;10.144;2023-05-10T02:21:35;5.40;;;3.95;;
75885;SDS011;64561;44.018;10.144;2023-05-10T02:24:04;6.07;;;4.68;;
75885;SDS011;64561;44.018;10.144;2023-05-10T02:26:32;10.70;;;5.30;;
75885;SDS011;64561;44.018;10.144;2023-05-10T02:29:16;9.02;;;5.47;;
75885;SDS011;64561;44.018;10.144;2023-05-10T02:31:45;5.65;;;4.50;;
75885;SDS011;64561;44.018;10.144;2023-05-10T02:34:13;7.75;;;4.75;;
75885;SDS011;64561;44.018;10.144;2023-05-10T02:36:40;7.78;;;4.82;;
75885;SDS011;64561;44.018;10.144;2023-05-10T02:39:08;9.20;;;5.15;;
75885;SDS011;64561;44.018;10.144;2023-05-10T02:41:40;9.90;;;4.82;;
75885;SDS011;64561;44.018;10.144;2023-05-10T02:44:08;6.68;;;5.22;;
75885;SDS011;64561;44.018;10.144;2023-05-10T02:46:36;6.90;;;4.78;;
75885;SDS011;64561;44.018;10.144;2023-05-10T02:49:04;6.45;;;3.97;;
75885;SDS011;64561;44.018;10.144;2023-05-10T02:51:31;4.70;;;3.28;;
75885;SDS011;64561;44.018;10.144;2023-05-10T02:54:04;5.65;;;2.75;;
75885;SDS011;64561;44.018;10.144;2023-05-10T02:56:39;3.85;;;2.50;;
75885;SDS011;64561;44.018;10.144;2023-05-10T02:59:09;3.13;;;2.30;;
75885;SDS011;64561;44.018;10.144;2023-05-10T03:01:35;4.03;;;2.45;;
75885;SDS011;64561;44.018;10.144;2023-05-10T03:04:03;4.00;;;2.72;;
75885;SDS011;64561;44.018;10.144;2023-05-10T03:06:30;4.70;;;2.17;;
75885;SDS011;64561;44.018;10.144;2023-05-10T03:08:57;2.17;;;1.80;;
75885;SDS011;64561;44.018;10.144;2023-05-10T03:17:08;3.10;;;1.83;;
75885;SDS011;64561;44.018;10.144;2023-05-10T03:19:47;2.83;;;1.77;;
75885;SDS011;64561;44.018;10.144;2023-05-10T03:22:20;2.60;;;1.40;;
75885;SDS011;64561;44.018;10.144;2023-05-10T03:24:51;2.53;;;1.63;;
75885;SDS011;64561;44.018;10.144;2023-05-10T03:27:23;3.60;;;1.80;;
75885;SDS011;64561;44.018;10.144;2023-05-10T03:29:53;2.80;;;1.50;;
75885;SDS011;64561;44.018;10.144;2023-05-10T03:32:22;2.35;;;1.95;;
75885;SDS011;64561;44.018;10.144;2023-05-10T03:34:49;3.47;;;1.70;;
75885;SDS011;64561;44.018;10.144;2023-05-10T03:37:16;3.47;;;1.60;;
75885;SDS011;64561;44.018;10.144;2023-05-10T03:39:44;2.00;;;1.50;;
75885;SDS011;64561;44.018;10.144;2023-05-10T03:42:11;3.28;;;1.60;;
75885;SDS011;64561;44.018;10.144;2023-05-10T03:44:39;3.72;;;1.50;;
75885;SDS011;64561;44.018;10.144;2023-05-10T03:47:06;4.63;;;1.50;;
75885;SDS011;64561;44.018;10.144;2023-05-10T03:49:33;2.05;;;1.40;;
75885;SDS011;64561;44.018;10.144;2023-05-10T03:52:00;2.88;;;1.63;;
75885;SDS011;64561;44.018;10.144;2023-05-10T03:54:27;4.43;;;1.40;;
75885;SDS011;64561;44.018;10.144;2023-05-10T03:56:54;2.75;;;1.23;;
75885;SDS011;64561;44.018;10.144;2023-05-10T03:59:21;2.65;;;1.40;;
75885;SDS011;64561;44.018;10.144;2023-05-10T04:01:50;3.75;;;1.70;;
75885;SDS011;64561;44.018;10.144;2023-05-10T04:04:17;8.98;;;2.08;;
75885;SDS011;64561;44.018;10.144;2023-05-10T04:06:47;4.88;;;1.60;;
75885;SDS011;64561;44.018;10.144;2023-05-10T04:09:14;2.60;;;1.60;;
75885;SDS011;64561;44.018;10.144;2023-05-10T04:11:41;2.67;;;1.40;;
75885;SDS011;64561;44.018;10.144;2023-05-10T04:14:08;2.13;;;1.52;;
75885;SDS011;64561;44.018;10.144;2023-05-10T04:16:35;4.25;;;1.65;;
75885;SDS011;64561;44.018;10.144;2023-05-10T04:19:02;4.10;;;1.50;;
75885;SDS011;64561;44.018;10.144;2023-05-10T04:21:29;3.80;;;1.60;;
75885;SDS011;64561;44.018;10.144;2023-05-10T04:23:56;4.15;;;1.67;;
75885;SDS011;64561;44.018;10.144;2023-05-10T04:26:23;1.95;;;1.35;;
75885;SDS011;64561;44.018;10.144;2023-05-10T04:28:51;2.55;;;1.70;;
75885;SDS011;64561;44.018;10.144;2023-05-10T04:31:18;3.83;;;1.60;;
75885;SDS011;64561;44.018;10.144;2023-05-10T04:33:46;3.55;;;1.40;;
75885;SDS011;64561;44.018;10.144;2023-05-10T04:36:13;7.75;;;1.95;;
75885;SDS011;64561;44.018;10.144;2023-05-10T04:38:40;3.33;;;1.63;;
75885;SDS011;64561;44.018;10.144;2023-05-10T04:41:07;2.70;;;1.70;;
75885;SDS011;64561;44.018;10.144;2023-05-10T04:43:36;2.65;;;1.30;;
75885;SDS011;64561;44.018;10.144;2023-05-10T04:46:04;1.95;;;1.02;;
75885;SDS011;64561;44.018;10.144;2023-05-10T04:48:31;2.05;;;1.20;;
75885;SDS011;64561;44.018;10.144;2023-05-10T04:50:57;1.20;;;0.85;;
75885;SDS011;64561;44.018;10.144;2023-05-10T04:53:24;2.42;;;0.98;;
75885;SDS011;64561;44.018;10.144;2023-05-10T04:55:51;1.63;;;1.17;;
75885;SDS011;64561;44.018;10.144;2023-05-10T04:58:18;1.42;;;1.02;;
75885;SDS011;64561;44.018;10.144;2023-05-10T05:00:45;2.05;;;1.30;;
75885;SDS011;64561;44.018;10.144;2023-05-10T05:03:11;2.08;;;1.02;;
75885;SDS011;64561;44.018;10.144;2023-05-10T05:05:38;2.60;;;1.10;;
75885;SDS011;64561;44.018;10.144;2023-05-10T05:08:05;2.97;;;1.27;;
75885;SDS011;64561;44.018;10.144;2023-05-10T05:10:32;1.05;;;0.90;;
75885;SDS011;64561;44.018;10.144;2023-05-10T05:12:59;1.95;;;1.02;;
75885;SDS011;64561;44.018;10.144;2023-05-10T05:15:26;2.50;;;0.95;;
75885;SDS011;64561;44.018;10.144;2023-05-10T05:17:53;3.10;;;1.20;;
75885;SDS011;64561;44.018;10.144;2023-05-10T05:20:20;1.60;;;0.93;;
75885;SDS011;64561;44.018;10.144;2023-05-10T05:22:46;2.05;;;1.30;;
75885;SDS011;64561;44.018;10.144;2023-05-10T05:25:13;2.30;;;1.15;;
75885;SDS011;64561;44.018;10.144;2023-05-10T05:27:41;3.03;;;1.33;;
75885;SDS011;64561;44.018;10.144;2023-05-10T05:30:08;2.53;;;1.10;;
75885;SDS011;64561;44.018;10.144;2023-05-10T05:32:35;2.67;;;1.15;;
75885;SDS011;64561;44.018;10.144;2023-05-10T05:35:02;2.97;;;1.42;;
75885;SDS011;64561;44.018;10.144;2023-05-10T05:37:29;2.00;;;1.20;;
75885;SDS011;64561;44.018;10.144;2023-05-10T05:39:55;3.10;;;1.00;;
75885;SDS011;64561;44.018;10.144;2023-05-10T05:42:22;3.95;;;1.50;;
75885;SDS011;64561;44.018;10.144;2023-05-10T05:44:49;1.92;;;1.25;;
75885;SDS011;64561;44.018;10.144;2023-05-10T05:47:16;3.38;;;1.48;;
75885;SDS011;64561;44.018;10.144;2023-05-10T05:49:43;2.50;;;1.65;;
75885;SDS011;64561;44.018;10.144;2023-05-10T05:52:12;1.85;;;1.52;;
75885;SDS011;64561;44.018;10.144;2023-05-10T05:54:39;2.70;;;1.58;;
75885;SDS011;64561;44.018;10.144;2023-05-10T05:57:06;2.30;;;1.27;;
75885;SDS011;64561;44.018;10.144;2023-05-10T05:59:33;1.55;;;1.02;;
75885;SDS011;64561;44.018;10.144;2023-05-10T06:02:00;1.48;;;1.20;;
75885;SDS011;64561;44.018;10.144;2023-05-10T06:04:27;4.25;;;2.05;;
75885;SDS011;64561;44.018;10.144;2023-05-10T06:06:54;2.63;;;1.42;;
75885;SDS011;64561;44.018;10.144;2023-05-10T06:09:21;4.55;;;1.30;;
75885;SDS011;64561;44.018;10.144;2023-05-10T06:11:49;2.15;;;1.35;;
75885;SDS011;64561;44.018;10.144;2023-05-10T06:14:17;4.68;;;1.60;;
75885;SDS011;64561;44.018;10.144;2023-05-10T06:16:43;4.20;;;1.33;;
75885;SDS011;64561;44.018;10.144;2023-05-10T06:19:10;3.10;;;1.70;;
75885;SDS011;64561;44.018;10.144;2023-05-10T06:21:37;3.15;;;1.48;;
75885;SDS011;64561;44.018;10.144;2023-05-10T06:24:07;2.83;;;1.48;;
75885;SDS011;64561;44.018;10.144;2023-05-10T06:26:33;1.95;;;1.30;;
75885;SDS011;64561;44.018;10.144;2023-05-10T06:29:00;2.45;;;1.73;;
75885;SDS011;64561;44.018;10.144;2023-05-10T06:31:27;3.03;;;1.63;;
75885;SDS011;64561;44.018;10.144;2023-05-10T06:33:54;1.95;;;1.40;;
75885;SDS011;64561;44.018;10.144;2023-05-10T06:36:22;2.15;;;1.50;;
75885;SDS011;64561;44.018;10.144;2023-05-10T06:38:51;2.40;;;1.52;;
75885;SDS011;64561;44.018;10.144;2023-05-10T06:41:18;3.20;;;1.50;;
75885;SDS011;64561;44.018;10.144;2023-05-10T06:43:45;3.17;;;1.90;;
75885;SDS011;64561;44.018;10.144;2023-05-10T06:46:11;2.50;;;1.90;;
75885;SDS011;64561;44.018;10.144;2023-05-10T06:48:38;3.88;;;2.13;;
75885;SDS011;64561;44.018;10.144;2023-05-10T06:51:05;3.60;;;2.40;;
75885;SDS011;64561;44.018;10.144;2023-05-10T06:53:32;3.47;;;2.50;;
75885;SDS011;64561;44.018;10.144;2023-05-10T06:55:59;4.68;;;2.30;;
75885;SDS011;64561;44.018;10.144;2023-05-10T06:58:25;3.67;;;2.33;;
75885;SDS011;64561;44.018;10.144;2023-05-10T07:00:52;3.78;;;2.25;;
75885;SDS011;64561;44.018;10.144;2023-05-10T07:03:19;3.30;;;2.78;;
75885;SDS011;64561;44.018;10.144;2023-05-10T07:05:46;3.20;;;2.55;;
75885;SDS011;64561;44.018;10.144;2023-05-10T07:08:13;3.58;;;2.55;;
75885;SDS011;64561;44.018;10.144;2023-05-10T07:10:39;3.92;;;2.95;;
75885;SDS011;64561;44.018;10.144;2023-05-10T07:13:06;3.58;;;2.33;;
75885;SDS011;64561;44.018;10.144;2023-05-10T07:15:33;3.70;;;2.60;;
75885;SDS011;64561;44.018;10.144;2023-05-10T07:18:00;4.07;;;2.58;;
75885;SDS011;64561;44.018;10.144;2023-05-10T07:20:27;4.25;;;2.60;;
75885;SDS011;64561;44.018;10.144;2023-05-10T07:22:54;4.25;;;3.05;;
75885;SDS011;64561;44.018;10.144;2023-05-10T07:25:21;5.22;;;3.40;;
75885;SDS011;64561;44.018;10.144;2023-05-10T07:27:48;3.65;;;2.90;;
75885;SDS011;64561;44.018;10.144;2023-05-10T07:30:14;2.55;;;1.75;;
75885;SDS011;64561;44.018;10.144;2023-05-10T07:32:42;4.45;;;2.25;;
75885;SDS011;64561;44.018;10.144;2023-05-10T07:35:08;3.83;;;2.50;;
75885;SDS011;64561;44.018;10.144;2023-05-10T07:37:35;5.18;;;2.40;;
75885;SDS011;64561;44.018;10.144;2023-05-10T07:40:02;5.35;;;2.70;;
75885;SDS011;64561;44.018;10.144;2023-05-10T07:42:30;3.58;;;2.40;;
75885;SDS011;64561;44.018;10.144;2023-05-10T07:44:56;3.90;;;2.55;;
75885;SDS011;64561;44.018;10.144;2023-05-10T07:47:24;3.80;;;2.30;;
75885;SDS011;64561;44.018;10.144;2023-05-10T07:49:51;4.93;;;2.50;;
75885;SDS011;64561;44.018;10.144;2023-05-10T07:52:17;4.05;;;2.60;;
75885;SDS011;64561;44.018;10.144;2023-05-10T07:54:47;3.50;;;1.98;;
75885;SDS011;64561;44.018;10.144;2023-05-10T07:57:15;2.80;;;2.10;;
75885;SDS011;64561;44.018;10.144;2023-05-10T07:59:44;3.55;;;1.80;;
75885;SDS011;64561;44.018;10.144;2023-05-10T08:02:11;2.08;;;1.60;;
75885;SDS011;64561;44.018;10.144;2023-05-10T08:04:38;5.80;;;2.10;;
75885;SDS011;64561;44.018;10.144;2023-05-10T08:07:05;3.78;;;2.20;;
75885;SDS011;64561;44.018;10.144;2023-05-10T08:09:32;3.92;;;1.70;;
75885;SDS011;64561;44.018;10.144;2023-05-10T08:11:58;3.22;;;1.95;;
75885;SDS011;64561;44.018;10.144;2023-05-10T08:14:28;3.25;;;2.10;;
75885;SDS011;64561;44.018;10.144;2023-05-10T08:16:56;3.28;;;2.38;;
75885;SDS011;64561;44.018;10.144;2023-05-10T08:19:22;2.60;;;1.98;;
75885;SDS011;64561;44.018;10.144;2023-05-10T08:21:50;4.57;;;2.60;;
75885;SDS011;64561;44.018;10.144;2023-05-10T08:24:17;4.38;;;2.35;;
75885;SDS011;64561;44.018;10.144;2023-05-10T08:26:44;4.47;;;2.83;;
75885;SDS011;64561;44.018;10.144;2023-05-10T08:29:11;3.75;;;2.90;;
75885;SDS011;64561;44.018;10.144;2023-05-10T08:31:38;4.90;;;2.83;;
75885;SDS011;64561;44.018;10.144;2023-05-10T08:34:04;3.53;;;2.40;;
75885;SDS011;64561;44.018;10.144;2023-05-10T08:36:31;3.05;;;2.10;;
75885;SDS011;64561;44.018;10.144;2023-05-10T08:39:01;3.28;;;2.38;;
75885;SDS011;64561;44.018;10.144;2023-05-10T08:41:28;3.60;;;2.35;;
75885;SDS011;64561;44.018;10.144;2023-05-10T08:43:59;3.70;;;2.50;;
75885;SDS011;64561;44.018;10.144;2023-05-10T08:48:57;4.53;;;2.42;;
75885;SDS011;64561;44.018;10.144;2023-05-10T08:51:26;4.45;;;2.55;;
75885;SDS011;64561;44.018;10.144;2023-05-10T08:53:56;4.35;;;2.10;;
75885;SDS011;64561;44.018;10.144;2023-05-10T08:56:23;5.30;;;2.10;;
75885;SDS011;64561;44.018;10.144;2023-05-10T08:58:50;3.97;;;1.83;;
75885;SDS011;64561;44.018;10.144;2023-05-10T09:01:20;4.43;;;2.00;;
75885;SDS011;64561;44.018;10.144;2023-05-10T09:03:48;2.83;;;1.67;;
75885;SDS011;64561;44.018;10.144;2023-05-10T09:06:15;3.17;;;2.00;;
75885;SDS011;64561;44.018;10.144;2023-05-10T09:08:42;4.13;;;1.95;;
75885;SDS011;64561;44.018;10.144;2023-05-10T09:11:11;2.95;;;1.65;;
75885;SDS011;64561;44.018;10.144;2023-05-10T09:13:39;3.65;;;1.92;;
75885;SDS011;64561;44.018;10.144;2023-05-10T09:16:06;4.00;;;1.63;;
75885;SDS011;64561;44.018;10.144;2023-05-10T09:18:47;4.32;;;2.60;;
75885;SDS011;64561;44.018;10.144;2023-05-10T09:21:15;3.10;;;2.00;;
75885;SDS011;64561;44.018;10.144;2023-05-10T09:23:43;3.95;;;2.25;;
75885;SDS011;64561;44.018;10.144;2023-05-10T09:26:14;5.57;;;1.95;;
75885;SDS011;64561;44.018;10.144;2023-05-10T09:31:18;2.60;;;1.50;;
75885;SDS011;64561;44.018;10.144;2023-05-10T09:33:46;2.45;;;1.50;;
75885;SDS011;64561;44.018;10.144;2023-05-10T09:36:14;5.07;;;1.95;;
75885;SDS011;64561;44.018;10.144;2023-05-10T09:38:48;5.68;;;1.80;;
75885;SDS011;64561;44.018;10.144;2023-05-10T09:41:19;2.65;;;1.60;;
75885;SDS011;64561;44.018;10.144;2023-05-10T09:43:47;4.00;;;1.77;;
75885;SDS011;64561;44.018;10.144;2023-05-10T09:46:17;2.45;;;1.63;;
75885;SDS011;64561;44.018;10.144;2023-05-10T09:48:47;3.08;;;1.60;;
75885;SDS011;64561;44.018;10.144;2023-05-10T09:51:21;2.65;;;1.20;;
75885;SDS011;64561;44.018;10.144;2023-05-10T09:56:38;1.92;;;1.05;;
75885;SDS011;64561;44.018;10.144;2023-05-10T09:59:10;3.38;;;1.13;;
75885;SDS011;64561;44.018;10.144;2023-05-10T10:01:38;4.97;;;1.77;;
75885;SDS011;64561;44.018;10.144;2023-05-10T10:04:07;1.58;;;1.30;;
75885;SDS011;64561;44.018;10.144;2023-05-10T10:06:39;3.55;;;1.45;;
75885;SDS011;64561;44.018;10.144;2023-05-10T10:09:06;2.47;;;1.73;;
75885;SDS011;64561;44.018;10.144;2023-05-10T10:11:34;2.25;;;1.65;;
75885;SDS011;64561;44.018;10.144;2023-05-10T10:14:02;2.40;;;1.60;;
75885;SDS011;64561;44.018;10.144;2023-05-10T10:16:30;2.83;;;1.30;;
75885;SDS011;64561;44.018;10.144;2023-05-10T10:18:58;2.47;;;1.42;;
75885;SDS011;64561;44.018;10.144;2023-05-10T10:21:25;1.70;;;1.15;;
75885;SDS011;64561;44.018;10.144;2023-05-10T10:23:52;1.85;;;1.15;;
75885;SDS011;64561;44.018;10.144;2023-05-10T10:26:19;1.73;;;1.30;;
75885;SDS011;64561;44.018;10.144;2023-05-10T10:36:31;2.42;;;1.02;;
75885;SDS011;64561;44.018;10.144;2023-05-10T10:39:01;1.80;;;0.70;;
75885;SDS011;64561;44.018;10.144;2023-05-10T10:47:04;1.80;;;0.98;;
75885;SDS011;64561;44.018;10.144;2023-05-10T10:49:42;2.88;;;1.48;;
75885;SDS011;64561;44.018;10.144;2023-05-10T10:54:50;2.72;;;1.63;;
75885;SDS011;64561;44.018;10.144;2023-05-10T11:08:09;4.90;;;1.85;;
75885;SDS011;64561;44.018;10.144;2023-05-10T11:10:39;2.92;;;2.03;;
75885;SDS011;64561;44.018;10.144;2023-05-10T11:13:15;3.03;;;1.65;;
75885;SDS011;64561;44.018;10.144;2023-05-10T11:15:47;3.40;;;1.70;;
75885;SDS011;64561;44.018;10.144;2023-05-10T11:18:20;2.92;;;1.23;;
75885;SDS011;64561;44.018;10.144;2023-05-10T11:20:50;2.45;;;1.30;;
75885;SDS011;64561;44.018;10.144;2023-05-10T11:23:18;2.90;;;1.25;;
75885;SDS011;64561;44.018;10.144;2023-05-10T11:25:47;2.83;;;1.60;;
75885;SDS011;64561;44.018;10.144;2023-05-10T11:28:18;1.90;;;1.30;;
75885;SDS011;64561;44.018;10.144;2023-05-10T11:30:46;1.55;;;0.98;;
75885;SDS011;64561;44.018;10.144;2023-05-10T11:33:17;2.67;;;1.25;;
75885;SDS011;64561;44.018;10.144;2023-05-10T11:35:45;3.08;;;1.00;;
75885;SDS011;64561;44.018;10.144;2023-05-10T11:38:15;3.55;;;1.35;;
75885;SDS011;64561;44.018;10.144;2023-05-10T11:40:42;0.85;;;0.55;;
75885;SDS011;64561;44.018;10.144;2023-05-10T11:43:09;0.88;;;0.60;;
75885;SDS011;64561;44.018;10.144;2023-05-10T11:45:37;3.20;;;0.70;;
75885;SDS011;64561;44.018;10.144;2023-05-10T11:48:06;1.27;;;0.80;;
75885;SDS011;64561;44.018;10.144;2023-05-10T11:50:34;2.03;;;1.20;;
75885;SDS011;64561;44.018;10.144;2023-05-10T11:53:01;1.63;;;1.15;;
75885;SDS011;64561;44.018;10.144;2023-05-10T11:55:28;1.20;;;0.95;;
75885;SDS011;64561;44.018;10.144;2023-05-10T11:58:00;1.08;;;0.65;;
75885;SDS011;64561;44.018;10.144;2023-05-10T12:00:28;2.63;;;1.08;;
75885;SDS011;64561;44.018;10.144;2023-05-10T12:02:56;1.75;;;1.02;;
75885;SDS011;64561;44.018;10.144;2023-05-10T12:05:24;1.75;;;1.20;;
75885;SDS011;64561;44.018;10.144;2023-05-10T12:07:51;2.30;;;1.17;;
75885;SDS011;64561;44.018;10.144;2023-05-10T12:10:26;3.20;;;1.70;;
75885;SDS011;64561;44.018;10.144;2023-05-10T12:12:53;4.15;;;2.03;;
75885;SDS011;64561;44.018;10.144;2023-05-10T12:15:22;3.03;;;1.63;;
75885;SDS011;64561;44.018;10.144;2023-05-10T12:17:50;2.30;;;1.40;;
75885;SDS011;64561;44.018;10.144;2023-05-10T12:20:19;4.05;;;1.60;;
75885;SDS011;64561;44.018;10.144;2023-05-10T12:22:51;2.22;;;1.40;;
75885;SDS011;64561;44.018;10.144;2023-05-10T12:25:20;3.17;;;1.20;;
75885;SDS011;64561;44.018;10.144;2023-05-10T12:27:55;4.57;;;1.55;;
75885;SDS011;64561;44.018;10.144;2023-05-10T12:30:27;2.70;;;1.23;;
75885;SDS011;64561;44.018;10.144;2023-05-10T12:33:02;2.65;;;1.17;;
75885;SDS011;64561;44.018;10.144;2023-05-10T12:35:38;3.25;;;1.40;;
75885;SDS011;64561;44.018;10.144;2023-05-10T12:38:33;3.35;;;1.65;;
75885;SDS011;64561;44.018;10.144;2023-05-10T12:41:02;2.67;;;1.23;;
75885;SDS011;64561;44.018;10.144;2023-05-10T12:43:31;2.38;;;1.48;;
75885;SDS011;64561;44.018;10.144;2023-05-10T12:45:58;1.88;;;1.25;;
75885;SDS011;64561;44.018;10.144;2023-05-10T12:48:30;2.47;;;1.30;;
75885;SDS011;64561;44.018;10.144;2023-05-10T12:50:57;2.40;;;1.55;;
75885;SDS011;64561;44.018;10.144;2023-05-10T12:53:24;3.80;;;1.63;;
75885;SDS011;64561;44.018;10.144;2023-05-10T12:55:51;3.90;;;1.50;;
75885;SDS011;64561;44.018;10.144;2023-05-10T12:58:18;2.65;;;1.45;;
75885;SDS011;64561;44.018;10.144;2023-05-10T13:01:01;2.47;;;1.30;;
75885;SDS011;64561;44.018;10.144;2023-05-10T13:03:28;1.30;;;0.98;;
75885;SDS011;64561;44.018;10.144;2023-05-10T13:05:55;1.70;;;1.20;;
75885;SDS011;64561;44.018;10.144;2023-05-10T13:08:22;1.30;;;0.75;;
75885;SDS011;64561;44.018;10.144;2023-05-10T13:10:49;1.58;;;0.88;;
75885;SDS011;64561;44.018;10.144;2023-05-10T13:13:16;0.80;;;0.70;;
75885;SDS011;64561;44.018;10.144;2023-05-10T13:15:42;0.93;;;0.80;;
75885;SDS011;64561;44.018;10.144;2023-05-10T13:18:12;2.10;;;1.02;;
75885;SDS011;64561;44.018;10.144;2023-05-10T13:20:40;5.25;;;0.85;;
75885;SDS011;64561;44.018;10.144;2023-05-10T13:23:10;2.70;;;1.08;;
75885;SDS011;64561;44.018;10.144;2023-05-10T13:25:37;2.28;;;0.90;;
75885;SDS011;64561;44.018;10.144;2023-05-10T13:28:04;1.30;;;0.88;;
75885;SDS011;64561;44.018;10.144;2023-05-10T13:30:31;2.58;;;1.08;;
75885;SDS011;64561;44.018;10.144;2023-05-10T13:32:58;1.17;;;0.82;;
75885;SDS011;64561;44.018;10.144;2023-05-10T13:35:25;3.33;;;1.40;;
75885;SDS011;64561;44.018;10.144;2023-05-10T13:37:53;1.88;;;1.15;;
75885;SDS011;64561;44.018;10.144;2023-05-10T13:40:23;2.28;;;1.25;;
75885;SDS011;64561;44.018;10.144;2023-05-10T13:42:50;1.88;;;1.08;;
75885;SDS011;64561;44.018;10.144;2023-05-10T13:45:17;2.42;;;1.13;;
75885;SDS011;64561;44.018;10.144;2023-05-10T13:47:44;2.65;;;1.10;;
75885;SDS011;64561;44.018;10.144;2023-05-10T13:50:11;2.20;;;1.10;;
75885;SDS011;64561;44.018;10.144;2023-05-10T13:52:38;1.42;;;1.10;;
75885;SDS011;64561;44.018;10.144;2023-05-10T13:55:05;1.17;;;0.95;;
75885;SDS011;64561;44.018;10.144;2023-05-10T13:57:32;2.17;;;0.90;;
75885;SDS011;64561;44.018;10.144;2023-05-10T14:00:09;1.65;;;1.10;;
75885;SDS011;64561;44.018;10.144;2023-05-10T14:02:37;2.42;;;1.23;;
75885;SDS011;64561;44.018;10.144;2023-05-10T14:05:04;4.88;;;1.17;;
75885;SDS011;64561;44.018;10.144;2023-05-10T14:07:31;1.65;;;1.02;;
75885;SDS011;64561;44.018;10.144;2023-05-10T14:09:58;2.05;;;0.75;;
75885;SDS011;64561;44.018;10.144;2023-05-10T14:12:25;1.33;;;1.00;;
75885;SDS011;64561;44.018;10.144;2023-05-10T14:14:52;1.20;;;0.73;;
75885;SDS011;64561;44.018;10.144;2023-05-10T14:17:19;1.25;;;0.65;;
75885;SDS011;64561;44.018;10.144;2023-05-10T14:19:46;1.25;;;1.00;;
75885;SDS011;64561;44.018;10.144;2023-05-10T14:22:13;1.65;;;0.95;;
75885;SDS011;64561;44.018;10.144;2023-05-10T14:24:40;2.42;;;0.80;;
75885;SDS011;64561;44.018;10.144;2023-05-10T14:27:07;2.15;;;1.10;;
75885;SDS011;64561;44.018;10.144;2023-05-10T14:29:34;1.45;;;1.10;;
75885;SDS011;64561;44.018;10.144;2023-05-10T14:32:00;0.90;;;0.68;;
75885;SDS011;64561;44.018;10.144;2023-05-10T14:34:27;0.60;;;0.52;;
75885;SDS011;64561;44.018;10.144;2023-05-10T14:36:54;0.82;;;0.60;;
75885;SDS011;64561;44.018;10.144;2023-05-10T14:39:22;0.85;;;0.65;;
75885;SDS011;64561;44.018;10.144;2023-05-10T14:41:49;1.33;;;0.90;;
75885;SDS011;64561;44.018;10.144;2023-05-10T14:44:17;1.52;;;0.80;;
75885;SDS011;64561;44.018;10.144;2023-05-10T14:46:44;2.00;;;0.90;;
75885;SDS011;64561;44.018;10.144;2023-05-10T14:49:11;2.42;;;0.93;;
75885;SDS011;64561;44.018;10.144;2023-05-10T14:51:38;1.40;;;0.90;;
75885;SDS011;64561;44.018;10.144;2023-05-10T14:54:05;2.75;;;0.90;;
75885;SDS011;64561;44.018;10.144;2023-05-10T14:56:32;1.05;;;0.90;;
75885;SDS011;64561;44.018;10.144;2023-05-10T14:58:58;0.80;;;0.77;;
75885;SDS011;64561;44.018;10.144;2023-05-10T15:01:26;0.90;;;0.57;;
75885;SDS011;64561;44.018;10.144;2023-05-10T15:03:54;4.93;;;4.03;;
75885;SDS011;64561;44.018;10.144;2023-05-10T15:06:30;3.25;;;2.05;;
75885;SDS011;64561;44.018;10.144;2023-05-10T15:08:58;2.03;;;1.40;;
75885;SDS011;64561;44.018;10.144;2023-05-10T15:11:26;1.63;;;0.90;;
75885;SDS011;64561;44.018;10.144;2023-05-10T15:13:53;0.98;;;0.80;;
75885;SDS011;64561;44.018;10.144;2023-05-10T15:16:19;11.27;;;4.90;;
75885;SDS011;64561;44.018;10.144;2023-05-10T15:18:46;5.78;;;2.70;;
75885;SDS011;64561;44.018;10.144;2023-05-10T15:21:14;1.17;;;0.90;;
75885;SDS011;64561;44.018;10.144;2023-05-10T15:23:41;1.23;;;0.90;;
75885;SDS011;64561;44.018;10.144;2023-05-10T15:26:08;1.10;;;0.80;;
75885;SDS011;64561;44.018;10.144;2023-05-10T15:28:35;1.33;;;0.85;;
75885;SDS011;64561;44.018;10.144;2023-05-10T15:31:02;1.15;;;0.70;;
75885;SDS011;64561;44.018;10.144;2023-05-10T15:33:32;1.65;;;0.80;;
75885;SDS011;64561;44.018;10.144;2023-05-10T15:35:59;1.25;;;0.82;;